Time;durP1;ratioP1;P1;durP2;ratioP2;P2;SDS_P1;SDS_P2;PMS_P1;PMS_P2;Temp;Humidity;BMP_temperature;BMP_pressure;BME280_temperature;BME280_humidity;BME280_pressure;Samples;Min_cycle;Max_cycle;Signal;HPM_P1;HPM_P2
2022/05/22 00:00:12;;;;;;;9.53;8.50;;;12.10;52.70;;;;;;4970365;28;20568;-56
2022/05/22 00:02:38;;;;;;;10.00;9.00;;;12.00;55.20;;;;;;4969149;28;20209;-57
2022/05/22 00:05:04;;;;;;;10.50;8.73;;;12.00;62.70;;;;;;4960184;28;20440;-55
2022/05/22 00:07:29;;;;;;;10.83;8.77;;;11.90;68.90;;;;;;4967756;28;20251;-57
2022/05/22 00:09:55;;;;;;;11.60;8.80;;;11.90;75.20;;;;;;4960313;28;21308;-54
2022/05/22 00:12:21;;;;;;;12.03;9.17;;;11.80;83.90;;;;;;4970608;28;20636;-57
2022/05/22 00:14:46;;;;;;;10.00;8.37;;;11.80;88.80;;;;;;4966683;28;20185;-53
2022/05/22 00:17:12;;;;;;;9.60;8.70;;;11.80;86.70;;;;;;4965986;28;20231;-56
2022/05/22 00:19:38;;;;;;;10.30;8.27;;;11.80;86.50;;;;;;4968764;28;20184;-55
2022/05/22 00:22:04;;;;;;;11.50;7.80;;;11.80;85.30;;;;;;4970475;28;20663;-56
2022/05/22 00:24:31;;;;;;;10.93;9.20;;;11.70;85.10;;;;;;4969596;28;20800;-54
2022/05/22 00:26:58;;;;;;;10.30;9.23;;;11.70;87.10;;;;;;4970405;28;20428;-54
2022/05/22 00:29:23;;;;;;;10.23;8.87;;;11.70;84.90;;;;;;4970427;28;20436;-54
2022/05/22 00:31:49;;;;;;;11.80;9.60;;;11.70;87.20;;;;;;4969412;28;20446;-54
2022/05/22 00:34:16;;;;;;;12.20;9.47;;;11.60;86.00;;;;;;4968446;28;20188;-52
2022/05/22 00:36:42;;;;;;;11.67;8.80;;;11.60;89.40;;;;;;4970486;28;20444;-51
2022/05/22 00:39:08;;;;;;;14.20;8.60;;;11.60;91.70;;;;;;4967866;28;20961;-51
2022/05/22 00:41:35;;;;;;;10.30;8.77;;;11.60;91.00;;;;;;4968647;28;20436;-57
2022/05/22 00:44:02;;;;;;;39.60;32.23;;;11.60;91.50;;;;;;4964344;28;20993;-54
2022/05/22 00:46:30;;;;;;;83.87;67.57;;;11.60;92.70;;;;;;4969248;28;20447;-54
2022/05/22 00:49:06;;;;;;;63.10;54.07;;;11.60;92.90;;;;;;4966227;28;20574;-55
2022/05/22 00:51:51;;;;;;;59.10;48.27;;;11.50;93.60;;;;;;4968419;28;21014;-56
2022/05/22 00:54:39;;;;;;;57.30;44.40;;;11.50;91.60;;;;;;4963963;28;20437;-53
2022/05/22 00:57:28;;;;;;;52.50;42.83;;;11.50;89.70;;;;;;4961217;28;20580;-54
2022/05/22 00:59:58;;;;;;;50.00;43.00;;;11.40;88.90;;;;;;4967268;28;20503;-53
2022/05/22 01:02:26;;;;;;;53.53;41.10;;;11.40;89.80;;;;;;4968236;28;20444;-56
2022/05/22 01:04:52;;;;;;;49.40;39.13;;;11.40;92.10;;;;;;4965737;28;20434;-53
2022/05/22 01:07:18;;;;;;;48.50;36.10;;;11.30;94.70;;;;;;4968480;28;20424;-54
2022/05/22 01:09:45;;;;;;;34.00;28.23;;;11.40;95.90;;;;;;4964540;28;20422;-57
2022/05/22 01:12:17;;;;;;;28.40;24.30;;;11.40;97.20;;;;;;4969093;28;20440;-54
2022/05/22 01:14:43;;;;;;;26.30;21.20;;;11.40;99.90;;;;;;4968491;28;20424;-52
2022/05/22 01:17:10;;;;;;;22.13;19.27;;;11.50;99.40;;;;;;4967434;28;20817;-54
2022/05/22 01:19:36;;;;;;;19.13;17.10;;;11.50;99.60;;;;;;4968899;28;20432;-52
2022/05/22 01:22:08;;;;;;;17.70;15.80;;;11.60;99.90;;;;;;4968295;28;20449;-56
2022/05/22 01:24:34;;;;;;;14.80;12.93;;;11.70;99.90;;;;;;4956643;28;20453;-58
2022/05/22 01:27:03;;;;;;;13.87;11.60;;;11.80;99.90;;;;;;4953584;28;20441;-52
2022/05/22 01:29:29;;;;;;;13.00;10.63;;;11.80;99.60;;;;;;4965908;28;20212;-53
2022/05/22 01:31:55;;;;;;;11.90;10.60;;;11.90;99.00;;;;;;4969113;28;21054;-57
2022/05/22 01:34:20;;;;;;;10.53;9.43;;;12.00;94.80;;;;;;4969082;28;20192;-54
2022/05/22 01:36:46;;;;;;;14.33;10.10;;;12.10;83.50;;;;;;4968923;28;20196;-53
2022/05/22 01:39:12;;;;;;;10.77;9.57;;;12.30;65.60;;;;;;4969565;28;20543;-56
2022/05/22 01:41:37;;;;;;;11.13;9.93;;;12.30;61.70;;;;;;4966648;28;20184;-55
2022/05/22 01:44:04;;;;;;;10.80;8.90;;;12.30;62.70;;;;;;4966794;28;20832;-54
2022/05/22 01:46:29;;;;;;;9.80;8.80;;;12.20;59.00;;;;;;4967074;28;20535;-56
2022/05/22 01:48:56;;;;;;;13.33;9.50;;;12.20;62.30;;;;;;4968359;28;20441;-57
2022/05/22 01:51:21;;;;;;;11.27;9.23;;;12.20;61.00;;;;;;4966342;28;20192;-53
2022/05/22 01:53:47;;;;;;;11.70;9.20;;;12.10;60.60;;;;;;4969184;28;20444;-56
2022/05/22 01:56:12;;;;;;;11.90;10.10;;;12.10;60.80;;;;;;4972215;28;20228;-56
2022/05/22 01:58:38;;;;;;;11.00;9.90;;;12.10;66.30;;;;;;4973084;28;20271;-57
2022/05/22 02:01:04;;;;;;;10.80;9.70;;;12.00;67.80;;;;;;4972273;28;20197;-58
2022/05/22 02:03:30;;;;;;;11.50;10.30;;;12.00;72.70;;;;;;4970396;28;20300;-56
2022/05/22 02:05:55;;;;;;;13.10;10.67;;;12.00;81.30;;;;;;4973657;28;20177;-56
2022/05/22 02:08:24;;;;;;;11.07;9.90;;;11.90;82.10;;;;;;4959561;28;20436;-52
2022/05/22 02:11:01;;;;;;;10.47;9.47;;;11.90;84.00;;;;;;4973252;28;20646;-56
2022/05/22 02:13:34;;;;;;;10.40;9.30;;;11.90;84.90;;;;;;4972409;28;20515;-55
2022/05/22 02:16:00;;;;;;;12.57;9.63;;;11.90;90.90;;;;;;4971577;28;20428;-54
2022/05/22 02:18:26;;;;;;;12.10;9.53;;;11.80;95.50;;;;;;4971231;28;21294;-53
2022/05/22 02:20:51;;;;;;;10.73;8.87;;;11.80;99.10;;;;;;4973300;28;20455;-54
2022/05/22 02:23:18;;;;;;;10.77;9.37;;;11.80;99.90;;;;;;4970572;28;20595;-55
2022/05/22 02:25:47;;;;;;;10.50;8.70;;;11.80;99.90;;;;;;4972593;28;20181;-53
2022/05/22 02:28:14;;;;;;;10.53;9.43;;;11.80;99.10;;;;;;4962123;28;20786;-53
2022/05/22 02:30:44;;;;;;;9.93;8.90;;;11.80;98.80;;;;;;4972345;28;20803;-57
2022/05/22 02:33:10;;;;;;;11.37;10.07;;;11.70;99.90;;;;;;4956043;28;20445;-56
2022/05/22 02:35:37;;;;;;;11.83;10.20;;;11.70;99.90;;;;;;4972646;28;20470;-57
2022/05/22 02:38:02;;;;;;;9.80;8.80;;;11.80;99.90;;;;;;4972829;28;20546;-53
2022/05/22 02:40:30;;;;;;;10.40;8.60;;;11.70;99.90;;;;;;4972304;28;20943;-56
2022/05/22 02:42:56;;;;;;;12.70;8.97;;;11.80;99.90;;;;;;4971965;28;20598;-54
2022/05/22 02:45:25;;;;;;;12.80;9.20;;;11.80;99.90;;;;;;4969619;28;20538;-54
2022/05/22 02:47:51;;;;;;;10.77;9.10;;;11.70;99.90;;;;;;4970774;28;21144;-54
2022/05/22 02:50:20;;;;;;;10.20;8.60;;;11.80;99.90;;;;;;4968092;28;20468;-55
2022/05/22 02:52:45;;;;;;;13.33;9.67;;;11.80;99.90;;;;;;4971214;28;20456;-55
2022/05/22 02:55:11;;;;;;;10.30;8.30;;;11.90;99.90;;;;;;4971712;28;20495;-55
2022/05/22 02:57:38;;;;;;;9.93;8.93;;;11.90;99.90;;;;;;4970853;28;20259;-52
2022/05/22 03:00:26;;;;;;;9.60;8.50;;;11.90;99.90;;;;;;4970510;28;20212;-55
2022/05/22 03:02:52;;;;;;;11.73;10.53;;;11.90;99.90;;;;;;4971521;28;20554;-55
2022/05/22 03:05:18;;;;;;;14.80;9.57;;;12.00;97.80;;;;;;4970944;28;20519;-55
2022/05/22 03:07:44;;;;;;;12.10;8.93;;;12.10;77.80;;;;;;4976668;28;20189;-53
2022/05/22 03:10:12;;;;;;;9.47;8.43;;;12.10;72.50;;;;;;4969187;28;20498;-55
2022/05/22 03:12:38;;;;;;;10.87;8.77;;;12.10;76.40;;;;;;4966138;28;20468;-53
2022/05/22 03:15:05;;;;;;;10.57;9.47;;;12.10;79.60;;;;;;4963069;28;20444;-54
2022/05/22 03:17:31;;;;;;;10.60;8.13;;;12.10;81.90;;;;;;4970876;28;20456;-52
2022/05/22 03:19:56;;;;;;;9.90;8.60;;;12.10;85.50;;;;;;4966885;28;20508;-54
2022/05/22 03:22:22;;;;;;;9.40;8.40;;;12.20;87.20;;;;;;4970510;28;20312;-56
2022/05/22 03:24:48;;;;;;;9.67;8.67;;;12.20;90.20;;;;;;4966272;28;20630;-56
2022/05/22 03:27:16;;;;;;;10.67;8.97;;;12.20;90.90;;;;;;4969406;28;20272;-57
2022/05/22 03:29:43;;;;;;;8.90;8.00;;;12.20;90.00;;;;;;4970231;28;20199;-54
2022/05/22 03:32:10;;;;;;;9.90;8.93;;;12.20;84.70;;;;;;4969064;28;20440;-55
2022/05/22 03:34:36;;;;;;;9.63;8.60;;;12.20;84.90;;;;;;4972326;28;20431;-55
2022/05/22 03:37:02;;;;;;;11.10;9.47;;;12.10;83.80;;;;;;4969543;28;20786;-56
2022/05/22 03:39:28;;;;;;;9.73;8.73;;;12.20;84.70;;;;;;4972105;28;20704;-53
2022/05/22 03:41:54;;;;;;;10.40;9.30;;;12.10;83.20;;;;;;4969294;28;20201;-55
2022/05/22 03:44:19;;;;;;;9.57;8.57;;;12.10;85.90;;;;;;4971586;28;20311;-51
2022/05/22 03:46:45;;;;;;;10.80;8.70;;;12.10;88.70;;;;;;4971880;28;20459;-58
2022/05/22 03:49:12;;;;;;;9.70;8.77;;;12.10;92.50;;;;;;4964704;28;20206;-54
2022/05/22 03:51:38;;;;;;;10.67;9.07;;;12.20;94.00;;;;;;4958810;28;20455;-54
2022/05/22 03:54:04;;;;;;;8.43;7.57;;;12.20;94.40;;;;;;4970298;28;20784;-55
2022/05/22 03:56:30;;;;;;;11.70;8.80;;;12.20;94.80;;;;;;4969344;28;20507;-53
2022/05/22 03:58:55;;;;;;;9.40;8.50;;;12.30;93.20;;;;;;4970089;28;20644;-55
2022/05/22 04:01:20;;;;;;;11.13;9.10;;;12.30;90.40;;;;;;4966734;28;20187;-56
2022/05/22 04:03:46;;;;;;;10.90;8.77;;;12.30;86.20;;;;;;4969361;28;20216;-52
2022/05/22 04:06:12;;;;;;;10.20;8.60;;;12.40;80.30;;;;;;4964868;28;20196;-54
2022/05/22 04:08:38;;;;;;;9.70;8.70;;;12.40;78.00;;;;;;4968213;28;20310;-54
2022/05/22 04:11:13;;;;;;;9.63;8.70;;;12.40;66.90;;;;;;4966532;28;20520;-55
2022/05/22 04:13:39;;;;;;;9.87;8.87;;;12.40;57.20;;;;;;4969916;28;20196;-53
2022/05/22 04:16:05;;;;;;;9.83;8.50;;;12.40;55.80;;;;;;4965821;28;20447;-55
2022/05/22 04:18:31;;;;;;;9.60;8.60;;;12.50;53.40;;;;;;4968588;28;21031;-54
2022/05/22 04:20:57;;;;;;;10.27;8.30;;;12.50;50.50;;;;;;4970764;28;20185;-52
2022/05/22 04:26:07;;;;;;;11.33;8.20;;;12.50;52.00;;;;;;4970825;28;20490;-56
2022/05/22 04:28:33;;;;;;;11.43;8.50;;;12.50;49.00;;;;;;4969661;28;20456;-56
2022/05/22 04:30:59;;;;;;;10.10;8.90;;;12.50;49.20;;;;;;4971013;28;20235;-56
2022/05/22 04:33:26;;;;;;;9.80;8.77;;;12.50;54.00;;;;;;4965000;28;20549;-57
2022/05/22 04:35:52;;;;;;;8.90;7.50;;;12.50;53.20;;;;;;4970225;28;20176;-56
2022/05/22 04:38:18;;;;;;;10.10;9.10;;;12.50;53.60;;;;;;4968047;28;20758;-57
2022/05/22 04:40:51;;;;;;;9.43;8.50;;;12.50;53.70;;;;;;4953956;28;20437;-57
2022/05/22 04:43:17;;;;;;;9.87;8.87;;;12.60;50.20;;;;;;4969565;28;20618;-57
2022/05/22 04:45:42;;;;;;;12.43;9.70;;;12.60;50.80;;;;;;4969863;28;21006;-55
2022/05/22 04:48:08;;;;;;;9.77;8.70;;;12.60;47.70;;;;;;4969887;28;20239;-55
2022/05/22 04:50:34;;;;;;;10.10;9.10;;;12.70;44.30;;;;;;4970981;28;20520;-55
2022/05/22 04:53:00;;;;;;;9.53;8.53;;;12.70;36.10;;;;;;4966562;28;20189;-56
2022/05/22 04:55:26;;;;;;;10.07;9.07;;;12.80;29.20;;;;;;4970040;28;20256;-56
2022/05/22 04:57:52;;;;;;;9.73;8.73;;;12.90;25.80;;;;;;4967822;28;20926;-55
2022/05/22 05:00:18;;;;;;;12.30;9.77;;;12.90;22.90;;;;;;4967719;28;20543;-54
2022/05/22 05:02:44;;;;;;;8.70;7.90;;;13.00;21.60;;;;;;4968575;28;20877;-55
2022/05/22 05:05:10;;;;;;;10.93;9.50;;;13.00;18.20;;;;;;4968335;28;20560;-53
2022/05/22 05:07:40;;;;;;;9.60;8.63;;;13.00;13.00;;;;;;4968853;28;20543;-57
2022/05/22 05:10:07;;;;;;;9.70;8.67;;;13.00;9.80;;;;;;4968064;28;20946;-55
2022/05/22 05:12:38;;;;;;;10.83;9.37;;;13.10;3.70;;;;;;4968696;28;20975;-55
2022/05/22 05:15:05;;;;;;;9.53;8.63;;;13.10;2.30;;;;;;4968754;28;20834;-55
2022/05/22 05:17:31;;;;;;;10.03;8.93;;;13.10;5.30;;;;;;4964861;28;20432;-53
2022/05/22 05:19:56;;;;;;;11.87;8.93;;;13.20;4.50;;;;;;4959799;28;20499;-57
2022/05/22 05:22:22;;;;;;;9.53;8.20;;;13.30;1.00;;;;;;4957037;28;20225;-53
2022/05/22 05:24:47;;;;;;;11.07;9.07;;;13.40;1.00;;;;;;4951464;28;20257;-54
2022/05/22 05:27:13;;;;;;;9.03;8.13;;;13.60;1.00;;;;;;4966101;28;21525;-52
2022/05/22 05:29:38;;;;;;;10.07;8.53;;;13.80;1.00;;;;;;4960621;28;20189;-56
2022/05/22 05:32:04;;;;;;;10.00;9.00;;;14.00;1.00;;;;;;4966902;28;20648;-52
2022/05/22 05:34:30;;;;;;;10.60;8.50;;;14.10;1.00;;;;;;4965109;28;20228;-54
2022/05/22 05:36:55;;;;;;;9.47;8.13;;;14.30;1.00;;;;;;4961439;28;20442;-56
2022/05/22 05:39:21;;;;;;;10.23;8.97;;;14.40;1.00;;;;;;4964867;28;20228;-57
2022/05/22 05:41:46;;;;;;;11.97;8.50;;;14.60;1.00;;;;;;4967843;28;20192;-56
2022/05/22 05:44:12;;;;;;;8.87;7.97;;;14.80;1.00;;;;;;4965687;28;20224;-53
2022/05/22 05:46:38;;;;;;;9.50;8.27;;;14.80;1.00;;;;;;4962179;28;20212;-55
2022/05/22 05:49:06;;;;;;;9.20;8.40;;;14.90;1.00;;;;;;4968799;28;20188;-56
2022/05/22 05:51:32;;;;;;;9.87;8.80;;;14.90;1.00;;;;;;4968430;28;20957;-56
2022/05/22 05:53:58;;;;;;;9.60;8.50;;;15.00;1.00;;;;;;4969063;28;20520;-57
2022/05/22 05:56:24;;;;;;;8.70;7.90;;;15.10;1.00;;;;;;4968228;28;20511;-56
2022/05/22 05:58:51;;;;;;;9.07;8.17;;;14.90;1.00;;;;;;4967084;28;21034;-57
2022/05/22 06:01:17;;;;;;;7.37;6.67;;;15.00;1.00;;;;;;4968528;28;20441;-55
2022/05/22 06:03:44;;;;;;;8.43;6.97;;;14.90;1.00;;;;;;4969029;28;20780;-52
2022/05/22 06:06:11;;;;;;;9.33;6.90;;;14.90;1.00;;;;;;4967339;28;20437;-50
2022/05/22 06:08:37;;;;;;;7.87;6.67;;;14.90;99.90;;;;;;4966920;28;21005;-57
2022/05/22 06:11:03;;;;;;;7.73;7.00;;;15.00;99.90;;;;;;4967128;28;20453;-53
2022/05/22 06:13:29;;;;;;;8.77;7.87;;;15.00;1.00;;;;;;4968806;28;20432;-53
2022/05/22 06:15:54;;;;;;;8.03;6.73;;;15.00;1.00;;;;;;4968266;28;20435;-53
2022/05/22 06:18:20;;;;;;;8.97;7.00;;;15.10;1.00;;;;;;4962274;28;20448;-56
2022/05/22 06:20:47;;;;;;;7.97;7.17;;;15.20;99.90;;;;;;4968463;28;20217;-56
2022/05/22 06:23:13;;;;;;;8.00;7.33;;;15.30;99.90;;;;;;4963402;28;20479;-56
2022/05/22 06:25:44;;;;;;;9.17;8.10;;;15.50;99.90;;;;;;4960250;28;21213;-54
2022/05/22 06:28:14;;;;;;;9.60;7.67;;;15.60;99.90;;;;;;4959509;28;20922;-56
2022/05/22 06:30:40;;;;;;;8.43;7.63;;;15.70;59.60;;;;;;4959970;28;20445;-57
2022/05/22 06:33:11;;;;;;;9.20;7.97;;;16.00;1.00;;;;;;4959117;28;20443;-55
2022/05/22 06:35:41;;;;;;;9.10;7.80;;;16.10;1.00;;;;;;4959652;28;20202;-55
2022/05/22 06:38:07;;;;;;;9.90;8.50;;;16.20;99.90;;;;;;4960363;28;20445;-56
2022/05/22 06:40:33;;;;;;;9.23;8.43;;;16.20;1.00;;;;;;4960641;28;20540;-54
2022/05/22 06:43:01;;;;;;;8.50;7.70;;;16.30;1.00;;;;;;4959907;28;20550;-54
2022/05/22 06:45:27;;;;;;;10.20;9.20;;;16.40;1.00;;;;;;4963686;28;20198;-57
2022/05/22 06:47:53;;;;;;;9.90;8.90;;;16.40;1.00;;;;;;4962196;28;21165;-58
2022/05/22 06:50:21;;;;;;;9.33;8.40;;;16.40;99.90;;;;;;4960832;28;20452;-56
2022/05/22 06:52:47;;;;;;;10.63;8.30;;;16.50;1.00;;;;;;4960703;28;20722;-53
2022/05/22 06:55:13;;;;;;;8.83;7.50;;;16.60;99.90;;;;;;4960808;28;20461;-56
2022/05/22 06:57:40;;;;;;;10.37;8.07;;;16.70;99.90;;;;;;4962989;28;21739;-52
2022/05/22 07:00:12;;;;;;;9.27;8.23;;;16.70;99.90;;;;;;4962885;28;20441;-54
2022/05/22 07:02:39;;;;;;;7.83;7.20;;;16.80;1.00;;;;;;4960935;28;20441;-55
2022/05/22 07:05:05;;;;;;;10.10;8.73;;;16.80;99.90;;;;;;4962294;28;20426;-56
2022/05/22 07:07:31;;;;;;;9.53;8.63;;;16.70;1.00;;;;;;4961461;28;20455;-56
2022/05/22 07:09:56;;;;;;;9.00;8.10;;;16.60;1.00;;;;;;4962644;28;20432;-56
2022/05/22 07:12:22;;;;;;;8.83;7.93;;;16.50;99.90;;;;;;4963227;28;20648;-52
2022/05/22 07:14:52;;;;;;;9.23;8.43;;;16.50;1.00;;;;;;4963164;28;20195;-55
2022/05/22 07:17:23;;;;;;;8.83;7.93;;;16.50;99.50;;;;;;4961416;28;20441;-56
2022/05/22 07:19:49;;;;;;;7.93;7.20;;;16.50;39.40;;;;;;4960724;28;20445;-55
2022/05/22 07:22:15;;;;;;;10.20;7.00;;;16.60;1.00;;;;;;4959042;28;20443;-49
2022/05/22 07:24:40;;;;;;;8.03;7.23;;;16.80;99.90;;;;;;4959866;28;20216;-55
2022/05/22 07:27:06;;;;;;;8.33;7.53;;;16.90;1.00;;;;;;4959273;28;20177;-53
2022/05/22 07:29:31;;;;;;;8.37;7.57;;;17.00;1.00;;;;;;4960831;28;20251;-54
2022/05/22 07:31:57;;;;;;;9.10;7.70;;;17.10;28.40;;;;;;4960971;28;20195;-55
2022/05/22 07:34:26;;;;;;;8.40;7.60;;;17.10;1.00;;;;;;4962200;28;20304;-51
2022/05/22 07:37:00;;;;;;;8.43;7.67;;;17.40;1.00;;;;;;4961409;28;20655;-52
2022/05/22 07:39:26;;;;;;;7.27;6.43;;;17.70;99.90;;;;;;4962496;28;20578;-50
2022/05/22 07:41:52;;;;;;;7.80;6.47;;;17.80;1.00;;;;;;4970474;28;20515;-54
2022/05/22 07:44:17;;;;;;;7.80;7.03;;;17.90;1.00;;;;;;4970924;28;20697;-52
2022/05/22 07:46:43;;;;;;;8.03;7.33;;;17.90;1.00;;;;;;4963436;28;21019;-55
2022/05/22 07:50:16;;;;;;;6.60;6.00;;;17.80;99.90;;;;;;4959738;28;20674;-55
2022/05/22 07:51:55;;;;;;;6.60;6.00;;;17.60;1.00;;;;;;4959944;28;20177;-53
2022/05/22 07:54:20;;;;;;;7.33;6.60;;;17.60;27.40;;;;;;4970045;28;20439;-51
2022/05/22 07:56:46;;;;;;;9.60;6.53;;;17.70;99.90;;;;;;4969632;28;20239;-54
2022/05/22 07:59:11;;;;;;;8.30;7.60;;;17.80;1.00;;;;;;4971173;28;20184;-54
2022/05/22 08:01:37;;;;;;;7.13;6.53;;;17.70;1.00;;;;;;4970970;28;20691;-54
2022/05/22 08:04:03;;;;;;;6.87;6.17;;;17.50;1.00;;;;;;4972024;28;20303;-50
2022/05/22 08:06:29;;;;;;;7.30;6.60;;;17.50;1.00;;;;;;4967024;28;20510;-55
2022/05/22 08:08:54;;;;;;;7.50;6.97;;;17.50;1.00;;;;;;4952545;28;20184;-55
2022/05/22 08:11:20;;;;;;;7.63;6.90;;;17.60;1.00;;;;;;4952571;28;20974;-53
2022/05/22 08:13:45;;;;;;;6.60;6.13;;;17.70;99.90;;;;;;4961605;28;20196;-50
2022/05/22 08:16:11;;;;;;;6.57;6.07;;;17.90;1.00;;;;;;4971372;28;20300;-52
2022/05/22 08:18:36;;;;;;;6.00;5.33;;;17.80;1.00;;;;;;4971673;28;20189;-52
2022/05/22 08:21:02;;;;;;;6.07;5.60;;;17.80;1.00;;;;;;4958295;28;20181;-53
2022/05/22 08:23:28;;;;;;;7.00;5.67;;;17.90;1.00;;;;;;4970078;28;20324;-49
2022/05/22 08:25:54;;;;;;;5.43;5.03;;;18.20;1.00;;;;;;4971309;28;20925;-50
2022/05/22 08:28:20;;;;;;;5.70;5.20;;;18.40;1.00;;;;;;4969249;28;20432;-49
2022/05/22 08:30:46;;;;;;;6.17;5.67;;;18.80;1.00;;;;;;4970929;28;20188;-55
2022/05/22 08:33:12;;;;;;;6.03;5.43;;;19.00;1.00;;;;;;4969863;28;20238;-53
2022/05/22 08:35:40;;;;;;;5.83;5.23;;;19.10;1.00;;;;;;4971367;28;20424;-53
2022/05/22 08:38:07;;;;;;;6.30;5.73;;;18.90;1.00;;;;;;4968661;28;20448;-50
2022/05/22 08:40:45;;;;;;;6.33;5.90;;;19.00;1.00;;;;;;4952134;28;20417;-54
2022/05/22 08:43:16;;;;;;;5.90;5.40;;;19.20;1.00;;;;;;4968219;28;20460;-52
2022/05/22 08:45:57;;;;;;;5.80;5.40;;;19.50;1.00;;;;;;4971484;28;20474;-52
2022/05/22 08:48:31;;;;;;;5.63;5.23;;;19.70;1.00;;;;;;4964414;28;20467;-50
2022/05/22 08:50:58;;;;;;;5.20;4.90;;;19.90;99.90;;;;;;4971166;28;20439;-55
2022/05/22 08:53:53;;;;;;;5.90;5.40;;;20.10;99.90;;;;;;4965685;28;20445;-55
2022/05/22 08:59:20;;;;;;;5.07;4.77;;;20.20;99.90;;;;;;4969918;28;20508;-54
2022/05/22 09:02:23;;;;;;;5.50;5.10;;;20.40;99.90;;;;;;4956678;28;21063;-57
2022/05/22 09:05:06;;;;;;;5.73;5.20;;;20.60;99.90;;;;;;4968679;28;20467;-53
2022/05/22 09:07:50;;;;;;;5.07;4.63;;;20.80;99.90;;;;;;4969102;28;20483;-54
2022/05/22 09:10:37;;;;;;;4.70;4.40;;;21.00;99.90;;;;;;4957840;28;20451;-56
2022/05/22 09:13:33;;;;;;;4.77;4.47;;;21.30;99.90;;;;;;4967137;28;20779;-56
2022/05/22 09:16:28;;;;;;;5.03;4.73;;;21.90;99.90;;;;;;4970638;28;20435;-53
2022/05/22 09:19:07;;;;;;;5.70;5.20;;;22.20;99.90;;;;;;4970664;28;20439;-52
2022/05/22 09:21:56;;;;;;;5.50;5.00;;;22.40;99.90;;;;;;4954153;28;20464;-57
2022/05/22 09:24:38;;;;;;;4.90;4.53;;;22.30;99.90;;;;;;4950902;28;20479;-54
2022/05/22 09:27:11;;;;;;;5.80;5.30;;;21.80;99.90;;;;;;4952294;28;20431;-56
2022/05/22 09:30:02;;;;;;;4.83;4.53;;;21.90;99.90;;;;;;4964896;28;20770;-57
2022/05/22 09:32:48;;;;;;;5.63;5.13;;;22.50;99.90;;;;;;4959683;28;20426;-55
2022/05/22 09:35:25;;;;;;;4.67;4.37;;;23.50;99.90;;;;;;4970620;28;20790;-57
2022/05/22 09:38:18;;;;;;;5.67;5.27;;;24.00;99.90;;;;;;4955321;28;20424;-54
2022/05/22 09:40:45;;;;;;;5.67;5.27;;;24.00;99.90;;;;;;4962345;28;20456;-58
2022/05/22 09:43:39;;;;;;;6.20;5.43;;;23.80;99.90;;;;;;4968006;28;21166;-57
2022/05/22 09:46:37;;;;;;;5.93;5.43;;;23.50;99.90;;;;;;4965750;28;20459;-54
2022/05/22 09:49:44;;;;;;;5.43;5.03;;;23.30;99.90;;;;;;4970388;28;20518;-53
2022/05/22 09:52:19;;;;;;;5.80;5.40;;;23.00;99.90;;;;;;4980325;28;20844;-56
2022/05/22 09:55:06;;;;;;;6.13;5.63;;;23.20;99.90;;;;;;4970372;28;20434;-55
2022/05/22 09:57:56;;;;;;;5.03;4.63;;;23.40;99.90;;;;;;4969247;28;20472;-56
2022/05/22 10:00:33;;;;;;;5.67;5.17;;;23.90;99.90;;;;;;4960171;28;20429;-55
2022/05/22 10:03:04;;;;;;;5.30;4.90;;;24.00;99.90;;;;;;4965201;28;20468;-55
2022/05/22 10:05:50;;;;;;;5.50;5.00;;;23.80;99.90;;;;;;4962196;28;20428;-56
2022/05/22 10:08:18;;;;;;;5.63;5.23;;;24.20;99.90;;;;;;4951641;28;20421;-55
2022/05/22 10:10:53;;;;;;;6.13;5.63;;;23.90;99.90;;;;;;4950640;28;20990;-55
2022/05/22 10:13:49;;;;;;;5.43;5.13;;;23.40;99.90;;;;;;4969094;28;20439;-55
2022/05/22 10:16:32;;;;;;;5.83;5.23;;;22.80;99.90;;;;;;4971762;28;20424;-55
2022/05/22 10:19:14;;;;;;;4.60;4.23;;;23.10;99.90;;;;;;4970928;28;20776;-56
2022/05/22 10:21:59;;;;;;;4.70;4.40;;;24.00;99.90;;;;;;4973892;28;20464;-56
2022/05/22 10:24:43;;;;;;;4.93;4.63;;;24.90;99.90;;;;;;4972808;28;20465;-56
2022/05/22 10:27:30;;;;;;;5.50;5.00;;;25.20;99.90;;;;;;4972881;28;20437;-57
2022/05/22 10:30:01;;;;;;;4.77;4.37;;;25.70;99.90;;;;;;4972393;28;20965;-56
2022/05/22 10:32:33;;;;;;;5.00;4.70;;;25.80;99.90;;;;;;4972068;28;20423;-53
2022/05/22 10:35:14;;;;;;;4.90;4.50;;;26.00;99.90;;;;;;4973055;28;20449;-56
2022/05/22 10:37:53;;;;;;;4.40;4.10;;;26.60;99.90;;;;;;4972138;28;20961;-56
2022/05/22 10:40:24;;;;;;;5.20;4.90;;;26.80;99.90;;;;;;4973401;28;20426;-56
2022/05/22 10:42:54;;;;;;;5.50;5.10;;;26.80;99.90;;;;;;4973258;28;20510;-55
2022/05/22 10:45:34;;;;;;;5.30;4.90;;;27.00;99.90;;;;;;4972647;28;20463;-57
2022/05/22 10:48:21;;;;;;;4.60;4.33;;;26.00;99.90;;;;;;4973444;28;20482;-56
2022/05/22 10:51:03;;;;;;;5.43;5.03;;;26.10;99.90;;;;;;4971623;28;20440;-56
2022/05/22 10:53:39;;;;;;;4.90;4.60;;;26.80;99.90;;;;;;4973222;28;20906;-57
2022/05/22 10:56:17;;;;;;;4.60;4.40;;;27.70;99.90;;;;;;4971293;28;20468;-57
2022/05/22 10:58:54;;;;;;;4.90;4.60;;;28.60;99.90;;;;;;4972862;28;20432;-58
2022/05/22 11:01:23;;;;;;;4.30;4.00;;;29.40;99.90;;;;;;4972224;28;20486;-56
2022/05/22 11:04:07;;;;;;;4.60;4.20;;;29.80;99.90;;;;;;4972017;28;20521;-56
2022/05/22 11:06:36;;;;;;;4.53;4.13;;;30.00;99.90;;;;;;4973006;28;20497;-56
2022/05/22 11:09:02;;;;;;;4.53;4.23;;;30.20;99.90;;;;;;4972954;28;20451;-57
2022/05/22 11:11:35;;;;;;;4.87;4.43;;;30.50;99.90;;;;;;4969544;28;20433;-58
2022/05/22 11:14:15;;;;;;;4.60;4.20;;;30.50;99.90;;;;;;4971625;28;20424;-56
2022/05/22 11:16:41;;;;;;;4.20;4.00;;;29.80;99.90;;;;;;4954077;28;20426;-54
2022/05/22 11:19:24;;;;;;;5.00;4.60;;;28.60;99.90;;;;;;4966469;28;20456;-56
2022/05/22 11:21:55;;;;;;;5.17;4.67;;;27.80;99.90;;;;;;4964975;28;20441;-56
2022/05/22 11:24:29;;;;;;;4.40;4.20;;;26.80;99.90;;;;;;4965165;28;20483;-56
2022/05/22 11:27:16;;;;;;;4.50;4.27;;;26.70;99.90;;;;;;4969315;28;20443;-55
2022/05/22 11:30:05;;;;;;;4.70;4.50;;;27.10;99.90;;;;;;4970498;28;20535;-56
2022/05/22 11:33:08;;;;;;;5.20;4.90;;;27.90;99.90;;;;;;4966011;28;20928;-56
2022/05/22 11:36:09;;;;;;;4.83;4.53;;;28.90;99.90;;;;;;4970040;28;20448;-55
2022/05/22 11:38:49;;;;;;;4.97;4.67;;;29.20;99.90;;;;;;4969460;28;20453;-55
2022/05/22 11:41:36;;;;;;;4.30;4.10;;;28.60;99.90;;;;;;4968550;28;20448;-56
2022/05/22 11:44:29;;;;;;;4.53;4.13;;;29.00;99.90;;;;;;4968110;28;20476;-55
2022/05/22 11:47:12;;;;;;;3.70;3.50;;;29.90;99.90;;;;;;4969105;28;20494;-59
2022/05/22 11:50:02;;;;;;;4.70;4.40;;;30.10;99.90;;;;;;4968713;28;21036;-56
2022/05/22 11:53:05;;;;;;;4.80;4.50;;;30.50;99.90;;;;;;4966506;28;20735;-57
2022/05/22 11:55:36;;;;;;;4.60;4.23;;;30.60;99.90;;;;;;4966895;28;20831;-57
2022/05/22 11:58:14;;;;;;;4.30;4.00;;;30.40;99.90;;;;;;4968775;28;20435;-57
2022/05/22 12:00:56;;;;;;;4.00;3.70;;;30.20;99.90;;;;;;4970146;28;20464;-57
2022/05/22 12:03:46;;;;;;;4.57;4.33;;;30.40;99.90;;;;;;4968860;28;20483;-57
2022/05/22 12:06:41;;;;;;;4.37;4.07;;;30.80;99.90;;;;;;4972044;28;20405;-57
2022/05/22 12:09:18;;;;;;;4.50;4.20;;;31.10;99.90;;;;;;4970662;28;20452;-58
2022/05/22 12:12:10;;;;;;;4.83;4.37;;;31.50;99.90;;;;;;4971013;28;20914;-57
2022/05/22 12:14:38;;;;;;;4.57;4.37;;;31.00;99.90;;;;;;4968251;28;20445;-57
2022/05/22 12:17:22;;;;;;;5.10;4.70;;;31.20;99.90;;;;;;4971957;28;20756;-57
2022/05/22 12:20:16;;;;;;;4.90;4.60;;;31.00;99.90;;;;;;4969479;28;20428;-56
2022/05/22 12:23:12;;;;;;;5.23;4.90;;;30.60;99.90;;;;;;4970985;28;20795;-57
2022/05/22 12:25:48;;;;;;;4.03;3.83;;;29.80;99.90;;;;;;4971499;28;20412;-58
2022/05/22 12:28:38;;;;;;;4.33;4.03;;;29.80;99.90;;;;;;4965396;28;20793;-56
2022/05/22 12:31:07;;;;;;;4.33;4.13;;;30.20;99.90;;;;;;4967112;28;20460;-58
2022/05/22 12:33:35;;;;;;;3.93;3.73;;;30.60;99.90;;;;;;4967229;28;20471;-57
2022/05/22 12:36:03;;;;;;;4.20;3.80;;;31.40;99.90;;;;;;4968992;28;20556;-58
2022/05/22 12:38:28;;;;;;;4.13;3.93;;;32.00;99.90;;;;;;4962594;28;20429;-56
2022/05/22 12:41:17;;;;;;;4.10;3.80;;;32.20;99.90;;;;;;4965306;28;20448;-57
2022/05/22 12:43:43;;;;;;;4.00;3.70;;;31.90;99.90;;;;;;4961861;28;20557;-57
2022/05/22 12:46:11;;;;;;;4.60;4.30;;;31.60;99.90;;;;;;4969790;28;20792;-57
2022/05/22 12:48:42;;;;;;;4.57;4.20;;;31.90;99.90;;;;;;4969559;28;20462;-58
2022/05/22 12:51:19;;;;;;;5.07;4.67;;;31.40;99.90;;;;;;4968346;28;20441;-58
2022/05/22 12:53:50;;;;;;;4.83;4.43;;;30.50;99.90;;;;;;4967890;28;20849;-58
2022/05/22 12:56:20;;;;;;;4.17;3.87;;;29.60;99.90;;;;;;4968898;28;20499;-56
2022/05/22 12:58:57;;;;;;;4.33;4.03;;;29.70;99.90;;;;;;4965042;28;20428;-57
2022/05/22 13:01:33;;;;;;;4.40;4.20;;;30.00;99.90;;;;;;4965971;28;20428;-56
2022/05/22 13:04:05;;;;;;;4.70;4.47;;;30.50;99.90;;;;;;4961171;28;20459;-53
2022/05/22 13:06:53;;;;;;;4.83;4.53;;;29.90;99.90;;;;;;4969538;28;20440;-56
2022/05/22 13:09:36;;;;;;;5.03;4.73;;;29.60;99.90;;;;;;4973475;28;20447;-57
2022/05/22 13:12:07;;;;;;;5.20;4.80;;;28.60;99.90;;;;;;4953739;28;20544;-58